sensor_id;sensor_type;location;lat;lon;timestamp;P1;durP1;ratioP1;P2;durP2;ratioP2
635;SDS011;302;50.206;8.196;2022-07-10T00:02:01;4.30;;;3.60;;
635;SDS011;302;50.206;8.196;2022-07-10T00:04:26;3.10;;;2.90;;
635;SDS011;302;50.206;8.196;2022-07-10T00:06:51;3.33;;;3.00;;
635;SDS011;302;50.206;8.196;2022-07-10T00:09:18;5.17;;;3.30;;
635;SDS011;302;50.206;8.196;2022-07-10T00:12:15;3.85;;;2.88;;
635;SDS011;302;50.206;8.196;2022-07-10T00:14:48;3.55;;;2.90;;
635;SDS011;302;50.206;8.196;2022-07-10T00:17:13;3.03;;;2.83;;
635;SDS011;302;50.206;8.196;2022-07-10T00:19:38;3.27;;;3.07;;
635;SDS011;302;50.206;8.196;2022-07-10T00:22:07;4.43;;;2.77;;
635;SDS011;302;50.206;8.196;2022-07-10T00:24:44;2.80;;;2.60;;
635;SDS011;302;50.206;8.196;2022-07-10T00:27:09;4.60;;;3.17;;
635;SDS011;302;50.206;8.196;2022-07-10T00:29:34;4.30;;;2.93;;
635;SDS011;302;50.206;8.196;2022-07-10T00:32:00;2.70;;;2.47;;
635;SDS011;302;50.206;8.196;2022-07-10T00:34:25;4.30;;;3.10;;
635;SDS011;302;50.206;8.196;2022-07-10T00:39:34;3.30;;;3.10;;
635;SDS011;302;50.206;8.196;2022-07-10T00:42:12;3.20;;;2.90;;
635;SDS011;302;50.206;8.196;2022-07-10T00:44:38;4.07;;;3.22;;
635;SDS011;302;50.206;8.196;2022-07-10T00:47:04;3.97;;;3.10;;
635;SDS011;302;50.206;8.196;2022-07-10T00:52:50;4.28;;;3.15;;
635;SDS011;302;50.206;8.196;2022-07-10T00:55:16;3.40;;;3.10;;
635;SDS011;302;50.206;8.196;2022-07-10T00:57:41;3.53;;;3.23;;
635;SDS011;302;50.206;8.196;2022-07-10T01:00:06;4.73;;;3.00;;
635;SDS011;302;50.206;8.196;2022-07-10T01:02:32;4.97;;;4.00;;
635;SDS011;302;50.206;8.196;2022-07-10T01:04:57;4.20;;;3.30;;
635;SDS011;302;50.206;8.196;2022-07-10T01:07:33;2.53;;;2.33;;
635;SDS011;302;50.206;8.196;2022-07-10T01:09:58;5.97;;;3.17;;
635;SDS011;302;50.206;8.196;2022-07-10T01:12:24;4.97;;;3.30;;
635;SDS011;302;50.206;8.196;2022-07-10T01:14:50;3.40;;;3.00;;
635;SDS011;302;50.206;8.196;2022-07-10T01:17:28;3.60;;;3.00;;
635;SDS011;302;50.206;8.196;2022-07-10T01:20:04;5.30;;;3.30;;
635;SDS011;302;50.206;8.196;2022-07-10T01:22:30;4.30;;;3.20;;
635;SDS011;302;50.206;8.196;2022-07-10T01:24:55;3.63;;;2.93;;
635;SDS011;302;50.206;8.196;2022-07-10T01:27:20;3.97;;;3.23;;
635;SDS011;302;50.206;8.196;2022-07-10T01:29:47;4.73;;;3.07;;
635;SDS011;302;50.206;8.196;2022-07-10T01:32:21;3.33;;;3.08;;
635;SDS011;302;50.206;8.196;2022-07-10T01:34:47;3.45;;;2.60;;
635;SDS011;302;50.206;8.196;2022-07-10T01:37:13;3.00;;;2.70;;
635;SDS011;302;50.206;8.196;2022-07-10T01:39:39;3.20;;;3.00;;
635;SDS011;302;50.206;8.196;2022-07-10T01:42:04;5.47;;;2.77;;
635;SDS011;302;50.206;8.196;2022-07-10T01:44:30;3.00;;;2.80;;
635;SDS011;302;50.206;8.196;2022-07-10T01:46:58;3.38;;;2.90;;
635;SDS011;302;50.206;8.196;2022-07-10T01:49:27;4.00;;;2.70;;
635;SDS011;302;50.206;8.196;2022-07-10T01:51:52;4.80;;;2.87;;
635;SDS011;302;50.206;8.196;2022-07-10T01:54:17;5.47;;;3.50;;
635;SDS011;302;50.206;8.196;2022-07-10T01:56:45;3.73;;;2.90;;
635;SDS011;302;50.206;8.196;2022-07-10T01:59:15;3.45;;;3.15;;
635;SDS011;302;50.206;8.196;2022-07-10T02:01:41;3.50;;;2.80;;
635;SDS011;302;50.206;8.196;2022-07-10T02:04:06;4.00;;;3.40;;
635;SDS011;302;50.206;8.196;2022-07-10T02:06:50;3.20;;;2.90;;
635;SDS011;302;50.206;8.196;2022-07-10T02:09:15;3.07;;;2.87;;
635;SDS011;302;50.206;8.196;2022-07-10T02:11:40;2.90;;;2.70;;
635;SDS011;302;50.206;8.196;2022-07-10T02:14:07;2.93;;;2.70;;
635;SDS011;302;50.206;8.196;2022-07-10T02:16:33;3.17;;;2.83;;
635;SDS011;302;50.206;8.196;2022-07-10T02:18:58;3.20;;;2.83;;
635;SDS011;302;50.206;8.196;2022-07-10T02:21:23;2.93;;;2.50;;
635;SDS011;302;50.206;8.196;2022-07-10T02:24:07;3.37;;;3.07;;
635;SDS011;302;50.206;8.196;2022-07-10T02:26:33;7.07;;;3.30;;
635;SDS011;302;50.206;8.196;2022-07-10T02:29:00;3.60;;;3.30;;
635;SDS011;302;50.206;8.196;2022-07-10T02:31:28;4.55;;;3.00;;
635;SDS011;302;50.206;8.196;2022-07-10T02:34:09;3.20;;;2.93;;
635;SDS011;302;50.206;8.196;2022-07-10T02:36:46;4.93;;;3.30;;
635;SDS011;302;50.206;8.196;2022-07-10T02:39:31;3.95;;;3.50;;
635;SDS011;302;50.206;8.196;2022-07-10T02:41:58;5.93;;;3.00;;
635;SDS011;302;50.206;8.196;2022-07-10T02:44:23;3.50;;;3.07;;
635;SDS011;302;50.206;8.196;2022-07-10T02:46:48;3.60;;;2.87;;
635;SDS011;302;50.206;8.196;2022-07-10T02:49:14;3.80;;;3.50;;
635;SDS011;302;50.206;8.196;2022-07-10T02:51:39;4.10;;;3.10;;
635;SDS011;302;50.206;8.196;2022-07-10T02:54:05;2.83;;;2.55;;
635;SDS011;302;50.206;8.196;2022-07-10T02:56:34;4.70;;;3.50;;
635;SDS011;302;50.206;8.196;2022-07-10T02:59:01;3.72;;;2.47;;
635;SDS011;302;50.206;8.196;2022-07-10T03:01:26;2.80;;;2.27;;
635;SDS011;302;50.206;8.196;2022-07-10T03:03:51;3.50;;;2.20;;
635;SDS011;302;50.206;8.196;2022-07-10T03:06:32;2.30;;;1.90;;
635;SDS011;302;50.206;8.196;2022-07-10T03:08:57;2.00;;;1.90;;
635;SDS011;302;50.206;8.196;2022-07-10T03:11:23;3.30;;;1.73;;
635;SDS011;302;50.206;8.196;2022-07-10T03:13:48;5.43;;;3.33;;
635;SDS011;302;50.206;8.196;2022-07-10T03:16:13;2.10;;;1.90;;
635;SDS011;302;50.206;8.196;2022-07-10T03:18:38;2.43;;;1.80;;
635;SDS011;302;50.206;8.196;2022-07-10T03:21:11;3.13;;;1.73;;
635;SDS011;302;50.206;8.196;2022-07-10T03:23:36;2.27;;;1.70;;
635;SDS011;302;50.206;8.196;2022-07-10T03:26:01;3.00;;;1.80;;
635;SDS011;302;50.206;8.196;2022-07-10T03:28:26;3.20;;;1.90;;
635;SDS011;302;50.206;8.196;2022-07-10T03:30:51;1.87;;;1.70;;
635;SDS011;302;50.206;8.196;2022-07-10T03:33:17;2.70;;;2.20;;
635;SDS011;302;50.206;8.196;2022-07-10T03:35:48;2.05;;;1.92;;
635;SDS011;302;50.206;8.196;2022-07-10T03:38:16;1.88;;;1.75;;
635;SDS011;302;50.206;8.196;2022-07-10T03:40:41;2.63;;;2.00;;
635;SDS011;302;50.206;8.196;2022-07-10T03:43:06;2.87;;;1.80;;
635;SDS011;302;50.206;8.196;2022-07-10T03:45:31;2.67;;;1.50;;
635;SDS011;302;50.206;8.196;2022-07-10T03:47:57;2.60;;;2.37;;
635;SDS011;302;50.206;8.196;2022-07-10T03:50:23;3.53;;;2.40;;
635;SDS011;302;50.206;8.196;2022-07-10T03:52:48;3.47;;;3.17;;
635;SDS011;302;50.206;8.196;2022-07-10T03:55:13;2.30;;;1.97;;
635;SDS011;302;50.206;8.196;2022-07-10T03:57:38;2.30;;;2.10;;
635;SDS011;302;50.206;8.196;2022-07-10T04:00:24;7.70;;;3.15;;
635;SDS011;302;50.206;8.196;2022-07-10T04:03:00;2.47;;;2.00;;
635;SDS011;302;50.206;8.196;2022-07-10T04:05:26;4.20;;;2.13;;
635;SDS011;302;50.206;8.196;2022-07-10T04:07:52;3.30;;;2.27;;
635;SDS011;302;50.206;8.196;2022-07-10T04:10:17;3.73;;;2.20;;
635;SDS011;302;50.206;8.196;2022-07-10T04:12:43;3.10;;;2.40;;
635;SDS011;302;50.206;8.196;2022-07-10T04:15:17;2.22;;;1.60;;
635;SDS011;302;50.206;8.196;2022-07-10T04:17:42;3.47;;;2.67;;
635;SDS011;302;50.206;8.196;2022-07-10T04:20:08;3.10;;;2.23;;
635;SDS011;302;50.206;8.196;2022-07-10T04:22:33;3.17;;;2.87;;
635;SDS011;302;50.206;8.196;2022-07-10T04:24:58;2.30;;;2.07;;
635;SDS011;302;50.206;8.196;2022-07-10T04:27:24;3.80;;;2.70;;
635;SDS011;302;50.206;8.196;2022-07-10T04:29:50;3.03;;;2.72;;
635;SDS011;302;50.206;8.196;2022-07-10T04:32:15;2.73;;;2.53;;
635;SDS011;302;50.206;8.196;2022-07-10T04:34:41;3.70;;;2.67;;
635;SDS011;302;50.206;8.196;2022-07-10T04:37:06;3.40;;;2.73;;
635;SDS011;302;50.206;8.196;2022-07-10T04:39:33;4.93;;;2.60;;
635;SDS011;302;50.206;8.196;2022-07-10T04:42:07;5.38;;;2.85;;
635;SDS011;302;50.206;8.196;2022-07-10T04:44:32;3.35;;;2.65;;
635;SDS011;302;50.206;8.196;2022-07-10T04:47:04;2.70;;;2.50;;
635;SDS011;302;50.206;8.196;2022-07-10T04:49:29;3.90;;;3.37;;
635;SDS011;302;50.206;8.196;2022-07-10T04:51:55;2.37;;;2.17;;
635;SDS011;302;50.206;8.196;2022-07-10T04:54:23;3.55;;;2.85;;
635;SDS011;302;50.206;8.196;2022-07-10T04:56:51;3.05;;;2.75;;
635;SDS011;302;50.206;8.196;2022-07-10T04:59:16;3.45;;;2.40;;
635;SDS011;302;50.206;8.196;2022-07-10T05:01:42;4.70;;;2.57;;
635;SDS011;302;50.206;8.196;2022-07-10T05:04:07;1.97;;;1.87;;
635;SDS011;302;50.206;8.196;2022-07-10T05:06:33;5.05;;;2.15;;
635;SDS011;302;50.206;8.196;2022-07-10T05:08:58;3.67;;;3.07;;
635;SDS011;302;50.206;8.196;2022-07-10T05:11:24;2.57;;;2.10;;
635;SDS011;302;50.206;8.196;2022-07-10T05:13:50;2.58;;;2.38;;
635;SDS011;302;50.206;8.196;2022-07-10T05:16:16;2.40;;;1.93;;
635;SDS011;302;50.206;8.196;2022-07-10T05:18:42;3.47;;;2.10;;
635;SDS011;302;50.206;8.196;2022-07-10T05:21:07;2.50;;;2.30;;
635;SDS011;302;50.206;8.196;2022-07-10T05:23:32;2.30;;;2.10;;
635;SDS011;302;50.206;8.196;2022-07-10T05:25:58;3.33;;;2.60;;
635;SDS011;302;50.206;8.196;2022-07-10T05:28:23;8.40;;;2.20;;
635;SDS011;302;50.206;8.196;2022-07-10T05:30:48;3.03;;;2.00;;
635;SDS011;302;50.206;8.196;2022-07-10T05:33:14;2.30;;;1.77;;
635;SDS011;302;50.206;8.196;2022-07-10T05:35:39;3.67;;;2.00;;
635;SDS011;302;50.206;8.196;2022-07-10T05:38:05;3.37;;;2.07;;
635;SDS011;302;50.206;8.196;2022-07-10T05:40:30;4.20;;;1.77;;
635;SDS011;302;50.206;8.196;2022-07-10T05:42:55;1.90;;;1.40;;
635;SDS011;302;50.206;8.196;2022-07-10T05:45:20;3.57;;;2.20;;
635;SDS011;302;50.206;8.196;2022-07-10T05:47:45;1.60;;;1.50;;
635;SDS011;302;50.206;8.196;2022-07-10T05:50:11;2.00;;;1.47;;
635;SDS011;302;50.206;8.196;2022-07-10T05:52:36;2.03;;;1.80;;
635;SDS011;302;50.206;8.196;2022-07-10T05:55:02;2.83;;;1.75;;
635;SDS011;302;50.206;8.196;2022-07-10T05:57:29;2.40;;;2.00;;
635;SDS011;302;50.206;8.196;2022-07-10T05:59:54;3.88;;;1.50;;
635;SDS011;302;50.206;8.196;2022-07-10T06:02:19;3.30;;;1.57;;
635;SDS011;302;50.206;8.196;2022-07-10T06:04:45;2.97;;;1.60;;
635;SDS011;302;50.206;8.196;2022-07-10T06:07:11;2.37;;;1.50;;
635;SDS011;302;50.206;8.196;2022-07-10T06:09:36;3.20;;;1.87;;
635;SDS011;302;50.206;8.196;2022-07-10T06:12:01;3.20;;;2.00;;
635;SDS011;302;50.206;8.196;2022-07-10T06:14:27;3.03;;;2.10;;
635;SDS011;302;50.206;8.196;2022-07-10T06:16:52;2.80;;;1.60;;
635;SDS011;302;50.206;8.196;2022-07-10T06:19:17;1.90;;;1.50;;
635;SDS011;302;50.206;8.196;2022-07-10T06:21:43;2.20;;;1.80;;
635;SDS011;302;50.206;8.196;2022-07-10T06:24:08;1.80;;;1.60;;
635;SDS011;302;50.206;8.196;2022-07-10T06:26:33;4.50;;;2.03;;
635;SDS011;302;50.206;8.196;2022-07-10T06:28:59;2.43;;;1.87;;
635;SDS011;302;50.206;8.196;2022-07-10T06:31:24;2.90;;;2.03;;
635;SDS011;302;50.206;8.196;2022-07-10T06:33:49;2.53;;;1.70;;
635;SDS011;302;50.206;8.196;2022-07-10T06:36:14;2.10;;;1.37;;
635;SDS011;302;50.206;8.196;2022-07-10T06:38:39;2.80;;;1.77;;
635;SDS011;302;50.206;8.196;2022-07-10T06:41:06;1.77;;;1.67;;
635;SDS011;302;50.206;8.196;2022-07-10T06:43:31;3.00;;;1.67;;
635;SDS011;302;50.206;8.196;2022-07-10T06:45:56;8.80;;;2.73;;
635;SDS011;302;50.206;8.196;2022-07-10T06:48:22;4.23;;;1.87;;
635;SDS011;302;50.206;8.196;2022-07-10T06:50:47;2.80;;;1.50;;
635;SDS011;302;50.206;8.196;2022-07-10T06:53:12;4.20;;;2.43;;
635;SDS011;302;50.206;8.196;2022-07-10T06:55:38;2.60;;;1.63;;
635;SDS011;302;50.206;8.196;2022-07-10T06:58:03;2.63;;;1.60;;
635;SDS011;302;50.206;8.196;2022-07-10T07:00:28;2.13;;;1.47;;
635;SDS011;302;50.206;8.196;2022-07-10T07:02:54;3.00;;;2.10;;
635;SDS011;302;50.206;8.196;2022-07-10T07:05:19;2.20;;;1.90;;
635;SDS011;302;50.206;8.196;2022-07-10T07:07:44;2.83;;;2.10;;
635;SDS011;302;50.206;8.196;2022-07-10T07:10:10;1.70;;;1.50;;
635;SDS011;302;50.206;8.196;2022-07-10T07:12:35;2.40;;;1.77;;
635;SDS011;302;50.206;8.196;2022-07-10T07:15:00;3.20;;;1.63;;
635;SDS011;302;50.206;8.196;2022-07-10T07:17:25;3.40;;;1.80;;
635;SDS011;302;50.206;8.196;2022-07-10T07:19:58;3.00;;;1.73;;
635;SDS011;302;50.206;8.196;2022-07-10T07:22:42;2.75;;;1.45;;
635;SDS011;302;50.206;8.196;2022-07-10T07:25:26;2.60;;;1.60;;
635;SDS011;302;50.206;8.196;2022-07-10T07:27:51;2.30;;;1.83;;
635;SDS011;302;50.206;8.196;2022-07-10T07:30:16;1.83;;;1.47;;
635;SDS011;302;50.206;8.196;2022-07-10T07:32:42;2.90;;;1.60;;
635;SDS011;302;50.206;8.196;2022-07-10T07:35:08;2.53;;;1.83;;
635;SDS011;302;50.206;8.196;2022-07-10T07:37:44;12.10;;;2.10;;
635;SDS011;302;50.206;8.196;2022-07-10T07:40:10;1.80;;;1.50;;
635;SDS011;302;50.206;8.196;2022-07-10T07:42:36;2.43;;;2.10;;
635;SDS011;302;50.206;8.196;2022-07-10T07:45:01;2.23;;;1.70;;
635;SDS011;302;50.206;8.196;2022-07-10T07:47:27;2.57;;;1.80;;
635;SDS011;302;50.206;8.196;2022-07-10T07:49:52;3.43;;;1.53;;
635;SDS011;302;50.206;8.196;2022-07-10T07:52:17;3.50;;;1.80;;
635;SDS011;302;50.206;8.196;2022-07-10T07:54:43;1.87;;;1.77;;
635;SDS011;302;50.206;8.196;2022-07-10T07:57:08;3.90;;;1.70;;
635;SDS011;302;50.206;8.196;2022-07-10T07:59:33;3.77;;;2.10;;
635;SDS011;302;50.206;8.196;2022-07-10T08:01:58;2.70;;;1.80;;
635;SDS011;302;50.206;8.196;2022-07-10T08:04:23;2.20;;;1.70;;
635;SDS011;302;50.206;8.196;2022-07-10T08:06:49;4.20;;;2.20;;
635;SDS011;302;50.206;8.196;2022-07-10T08:09:17;5.43;;;2.53;;
635;SDS011;302;50.206;8.196;2022-07-10T08:11:42;3.67;;;1.70;;
635;SDS011;302;50.206;8.196;2022-07-10T08:14:08;2.00;;;1.80;;
635;SDS011;302;50.206;8.196;2022-07-10T08:16:33;2.38;;;1.80;;
635;SDS011;302;50.206;8.196;2022-07-10T08:18:58;2.70;;;1.80;;
635;SDS011;302;50.206;8.196;2022-07-10T08:21:23;3.40;;;2.20;;
635;SDS011;302;50.206;8.196;2022-07-10T08:23:48;3.87;;;2.30;;
635;SDS011;302;50.206;8.196;2022-07-10T08:26:13;3.70;;;1.93;;
635;SDS011;302;50.206;8.196;2022-07-10T08:28:39;2.23;;;2.03;;
635;SDS011;302;50.206;8.196;2022-07-10T08:31:04;2.93;;;2.13;;
635;SDS011;302;50.206;8.196;2022-07-10T08:33:29;4.40;;;1.90;;
635;SDS011;302;50.206;8.196;2022-07-10T08:35:54;2.90;;;1.97;;
635;SDS011;302;50.206;8.196;2022-07-10T08:38:23;3.25;;;1.95;;
635;SDS011;302;50.206;8.196;2022-07-10T08:40:48;2.03;;;1.83;;
635;SDS011;302;50.206;8.196;2022-07-10T08:43:15;2.47;;;1.88;;
635;SDS011;302;50.206;8.196;2022-07-10T08:45:40;2.87;;;1.87;;
635;SDS011;302;50.206;8.196;2022-07-10T08:48:05;2.40;;;1.90;;
635;SDS011;302;50.206;8.196;2022-07-10T08:50:32;2.65;;;1.90;;
635;SDS011;302;50.206;8.196;2022-07-10T08:55:23;4.20;;;2.50;;
635;SDS011;302;50.206;8.196;2022-07-10T08:57:49;2.77;;;1.80;;
635;SDS011;302;50.206;8.196;2022-07-10T09:00:15;2.13;;;1.63;;
635;SDS011;302;50.206;8.196;2022-07-10T09:02:41;2.42;;;1.80;;
635;SDS011;302;50.206;8.196;2022-07-10T09:05:06;2.73;;;1.70;;
635;SDS011;302;50.206;8.196;2022-07-10T09:07:36;3.05;;;1.80;;
635;SDS011;302;50.206;8.196;2022-07-10T09:10:05;4.18;;;2.50;;
635;SDS011;302;50.206;8.196;2022-07-10T09:12:30;2.10;;;1.42;;
635;SDS011;302;50.206;8.196;2022-07-10T09:15:16;2.75;;;1.90;;
635;SDS011;302;50.206;8.196;2022-07-10T09:17:52;2.33;;;1.70;;
635;SDS011;302;50.206;8.196;2022-07-10T09:20:24;3.70;;;2.45;;
635;SDS011;302;50.206;8.196;2022-07-10T09:22:50;2.78;;;2.20;;
635;SDS011;302;50.206;8.196;2022-07-10T09:25:15;2.27;;;1.60;;
635;SDS011;302;50.206;8.196;2022-07-10T09:27:53;3.80;;;2.00;;
635;SDS011;302;50.206;8.196;2022-07-10T09:30:38;3.35;;;1.60;;
635;SDS011;302;50.206;8.196;2022-07-10T09:36:07;2.58;;;2.08;;
635;SDS011;302;50.206;8.196;2022-07-10T09:41:49;4.30;;;2.63;;
635;SDS011;302;50.206;8.196;2022-07-10T09:44:00;2.55;;;1.60;;
635;SDS011;302;50.206;8.196;2022-07-10T09:46:31;4.75;;;1.95;;
635;SDS011;302;50.206;8.196;2022-07-10T09:51:29;3.20;;;1.65;;
635;SDS011;302;50.206;8.196;2022-07-10T09:53:54;2.97;;;1.50;;
635;SDS011;302;50.206;8.196;2022-07-10T09:56:20;3.63;;;1.97;;
635;SDS011;302;50.206;8.196;2022-07-10T09:58:45;2.20;;;1.60;;
635;SDS011;302;50.206;8.196;2022-07-10T10:01:15;3.13;;;2.00;;
635;SDS011;302;50.206;8.196;2022-07-10T10:03:41;1.98;;;1.85;;
635;SDS011;302;50.206;8.196;2022-07-10T10:06:12;2.28;;;1.95;;
635;SDS011;302;50.206;8.196;2022-07-10T10:11:07;2.20;;;2.00;;
635;SDS011;302;50.206;8.196;2022-07-10T10:13:33;3.45;;;2.22;;
635;SDS011;302;50.206;8.196;2022-07-10T10:15:59;2.80;;;2.10;;
635;SDS011;302;50.206;8.196;2022-07-10T10:18:26;2.00;;;1.80;;
635;SDS011;302;50.206;8.196;2022-07-10T10:20:52;2.50;;;1.80;;
635;SDS011;302;50.206;8.196;2022-07-10T10:23:26;2.03;;;1.83;;
635;SDS011;302;50.206;8.196;2022-07-10T10:25:53;2.45;;;1.73;;
635;SDS011;302;50.206;8.196;2022-07-10T10:28:20;3.55;;;2.30;;
635;SDS011;302;50.206;8.196;2022-07-10T10:30:52;2.55;;;2.03;;
635;SDS011;302;50.206;8.196;2022-07-10T10:36:42;2.63;;;1.70;;
635;SDS011;302;50.206;8.196;2022-07-10T10:39:02;2.58;;;1.77;;
635;SDS011;302;50.206;8.196;2022-07-10T10:41:29;2.40;;;1.50;;
635;SDS011;302;50.206;8.196;2022-07-10T10:44:29;2.65;;;1.60;;
635;SDS011;302;50.206;8.196;2022-07-10T10:49:15;2.35;;;1.77;;
635;SDS011;302;50.206;8.196;2022-07-10T10:54:27;1.70;;;1.60;;
635;SDS011;302;50.206;8.196;2022-07-10T10:59:52;2.45;;;1.52;;
635;SDS011;302;50.206;8.196;2022-07-10T11:04:49;3.22;;;1.50;;
635;SDS011;302;50.206;8.196;2022-07-10T11:07:50;2.70;;;1.60;;
635;SDS011;302;50.206;8.196;2022-07-10T11:13:07;1.75;;;1.30;;
635;SDS011;302;50.206;8.196;2022-07-10T11:15:34;2.63;;;1.30;;
635;SDS011;302;50.206;8.196;2022-07-10T11:18:03;2.42;;;1.45;;
635;SDS011;302;50.206;8.196;2022-07-10T11:20:34;1.98;;;1.23;;
635;SDS011;302;50.206;8.196;2022-07-10T11:23:13;2.17;;;1.15;;
635;SDS011;302;50.206;8.196;2022-07-10T11:25:51;1.88;;;1.77;;
635;SDS011;302;50.206;8.196;2022-07-10T11:31:10;3.27;;;1.60;;
635;SDS011;302;50.206;8.196;2022-07-10T11:33:39;1.77;;;1.47;;
635;SDS011;302;50.206;8.196;2022-07-10T11:36:09;2.80;;;1.60;;
635;SDS011;302;50.206;8.196;2022-07-10T11:38:34;1.97;;;1.77;;
635;SDS011;302;50.206;8.196;2022-07-10T11:41:00;2.80;;;1.63;;
635;SDS011;302;50.206;8.196;2022-07-10T11:43:25;2.37;;;1.70;;
635;SDS011;302;50.206;8.196;2022-07-10T11:45:50;2.93;;;1.30;;
635;SDS011;302;50.206;8.196;2022-07-10T11:48:17;1.83;;;1.20;;
635;SDS011;302;50.206;8.196;2022-07-10T11:50:43;2.60;;;1.10;;
635;SDS011;302;50.206;8.196;2022-07-10T11:53:08;3.13;;;1.47;;
635;SDS011;302;50.206;8.196;2022-07-10T11:55:33;1.60;;;1.30;;
635;SDS011;302;50.206;8.196;2022-07-10T11:58:12;1.87;;;1.53;;
635;SDS011;302;50.206;8.196;2022-07-10T12:00:37;1.63;;;1.30;;
635;SDS011;302;50.206;8.196;2022-07-10T12:03:15;1.90;;;1.40;;
635;SDS011;302;50.206;8.196;2022-07-10T12:05:40;2.10;;;1.40;;
635;SDS011;302;50.206;8.196;2022-07-10T12:08:06;2.20;;;1.40;;
635;SDS011;302;50.206;8.196;2022-07-10T12:10:32;2.10;;;1.50;;
635;SDS011;302;50.206;8.196;2022-07-10T12:13:08;2.43;;;1.30;;
635;SDS011;302;50.206;8.196;2022-07-10T12:15:36;1.67;;;1.53;;
635;SDS011;302;50.206;8.196;2022-07-10T12:18:03;1.40;;;1.10;;
635;SDS011;302;50.206;8.196;2022-07-10T12:20:28;1.33;;;1.07;;
635;SDS011;302;50.206;8.196;2022-07-10T12:22:54;1.73;;;1.27;;
635;SDS011;302;50.206;8.196;2022-07-10T12:25:22;2.63;;;1.60;;
635;SDS011;302;50.206;8.196;2022-07-10T12:27:48;2.80;;;2.25;;
635;SDS011;302;50.206;8.196;2022-07-10T12:30:13;1.80;;;1.27;;
635;SDS011;302;50.206;8.196;2022-07-10T12:32:38;2.47;;;1.40;;
635;SDS011;302;50.206;8.196;2022-07-10T12:35:04;2.53;;;1.50;;
635;SDS011;302;50.206;8.196;2022-07-10T12:37:32;1.60;;;1.40;;
635;SDS011;302;50.206;8.196;2022-07-10T12:39:57;3.40;;;1.50;;
635;SDS011;302;50.206;8.196;2022-07-10T12:42:27;2.53;;;1.40;;
635;SDS011;302;50.206;8.196;2022-07-10T12:44:52;1.60;;;1.40;;
635;SDS011;302;50.206;8.196;2022-07-10T12:47:18;1.40;;;1.30;;
635;SDS011;302;50.206;8.196;2022-07-10T12:49:48;1.40;;;1.00;;
635;SDS011;302;50.206;8.196;2022-07-10T12:52:23;1.87;;;1.40;;
635;SDS011;302;50.206;8.196;2022-07-10T12:55:04;1.73;;;1.43;;
635;SDS011;302;50.206;8.196;2022-07-10T12:57:30;1.50;;;1.30;;
635;SDS011;302;50.206;8.196;2022-07-10T13:00:02;1.80;;;1.53;;
635;SDS011;302;50.206;8.196;2022-07-10T13:02:27;3.40;;;1.23;;
635;SDS011;302;50.206;8.196;2022-07-10T13:04:55;1.60;;;1.30;;
635;SDS011;302;50.206;8.196;2022-07-10T13:07:28;1.40;;;1.30;;
635;SDS011;302;50.206;8.196;2022-07-10T13:09:53;1.63;;;1.20;;
635;SDS011;302;50.206;8.196;2022-07-10T13:12:18;1.80;;;1.57;;
635;SDS011;302;50.206;8.196;2022-07-10T13:14:44;2.70;;;1.70;;
635;SDS011;302;50.206;8.196;2022-07-10T13:17:09;2.80;;;1.80;;
635;SDS011;302;50.206;8.196;2022-07-10T13:19:34;2.00;;;1.50;;
635;SDS011;302;50.206;8.196;2022-07-10T13:21:59;1.80;;;1.50;;
635;SDS011;302;50.206;8.196;2022-07-10T13:24:24;2.87;;;1.63;;
635;SDS011;302;50.206;8.196;2022-07-10T13:26:52;2.20;;;1.70;;
635;SDS011;302;50.206;8.196;2022-07-10T13:29:19;1.95;;;1.70;;
635;SDS011;302;50.206;8.196;2022-07-10T13:31:44;1.85;;;1.63;;
635;SDS011;302;50.206;8.196;2022-07-10T13:34:09;1.83;;;1.40;;
635;SDS011;302;50.206;8.196;2022-07-10T13:36:35;1.60;;;1.50;;
635;SDS011;302;50.206;8.196;2022-07-10T13:39:00;2.60;;;1.77;;
635;SDS011;302;50.206;8.196;2022-07-10T13:41:25;2.27;;;1.60;;
635;SDS011;302;50.206;8.196;2022-07-10T13:43:50;1.70;;;1.60;;
635;SDS011;302;50.206;8.196;2022-07-10T13:46:15;1.50;;;1.40;;
635;SDS011;302;50.206;8.196;2022-07-10T13:48:41;2.03;;;1.73;;
635;SDS011;302;50.206;8.196;2022-07-10T13:51:06;1.77;;;1.67;;
635;SDS011;302;50.206;8.196;2022-07-10T13:53:31;1.50;;;1.40;;
635;SDS011;302;50.206;8.196;2022-07-10T13:55:56;1.50;;;1.40;;
635;SDS011;302;50.206;8.196;2022-07-10T13:58:21;1.40;;;1.30;;
635;SDS011;302;50.206;8.196;2022-07-10T14:00:47;2.43;;;1.43;;
635;SDS011;302;50.206;8.196;2022-07-10T14:03:12;1.77;;;1.37;;
635;SDS011;302;50.206;8.196;2022-07-10T14:05:37;1.43;;;1.33;;
635;SDS011;302;50.206;8.196;2022-07-10T14:08:02;1.60;;;1.50;;
635;SDS011;302;50.206;8.196;2022-07-10T14:10:28;1.60;;;1.50;;
635;SDS011;302;50.206;8.196;2022-07-10T14:12:53;1.60;;;1.50;;
635;SDS011;302;50.206;8.196;2022-07-10T14:15:19;1.53;;;1.43;;
635;SDS011;302;50.206;8.196;2022-07-10T14:17:44;1.63;;;1.53;;
635;SDS011;302;50.206;8.196;2022-07-10T14:20:09;1.70;;;1.50;;
635;SDS011;302;50.206;8.196;2022-07-10T14:22:35;1.77;;;1.53;;
635;SDS011;302;50.206;8.196;2022-07-10T14:25:00;2.00;;;1.90;;
635;SDS011;302;50.206;8.196;2022-07-10T14:27:26;2.63;;;1.67;;
635;SDS011;302;50.206;8.196;2022-07-10T14:29:52;1.52;;;1.42;;
635;SDS011;302;50.206;8.196;2022-07-10T14:32:18;1.30;;;1.20;;
635;SDS011;302;50.206;8.196;2022-07-10T14:34:43;1.73;;;1.40;;
635;SDS011;302;50.206;8.196;2022-07-10T14:37:08;1.50;;;1.40;;
635;SDS011;302;50.206;8.196;2022-07-10T14:39:33;1.80;;;1.27;;
635;SDS011;302;50.206;8.196;2022-07-10T14:41:59;1.40;;;1.30;;
635;SDS011;302;50.206;8.196;2022-07-10T14:44:24;1.30;;;1.20;;
635;SDS011;302;50.206;8.196;2022-07-10T14:46:49;1.50;;;1.40;;
635;SDS011;302;50.206;8.196;2022-07-10T14:49:14;1.53;;;1.43;;
635;SDS011;302;50.206;8.196;2022-07-10T14:51:39;2.37;;;1.50;;
635;SDS011;302;50.206;8.196;2022-07-10T14:54:05;1.90;;;1.30;;
635;SDS011;302;50.206;8.196;2022-07-10T14:56:30;1.93;;;1.83;;
635;SDS011;302;50.206;8.196;2022-07-10T14:58:55;2.70;;;2.03;;
635;SDS011;302;50.206;8.196;2022-07-10T15:01:20;2.30;;;2.20;;
635;SDS011;302;50.206;8.196;2022-07-10T15:03:45;2.30;;;2.10;;
635;SDS011;302;50.206;8.196;2022-07-10T15:06:11;2.43;;;2.30;;
635;SDS011;302;50.206;8.196;2022-07-10T15:08:36;2.60;;;2.40;;
635;SDS011;302;50.206;8.196;2022-07-10T15:11:02;2.57;;;2.37;;
635;SDS011;302;50.206;8.196;2022-07-10T15:13:28;2.50;;;2.33;;
635;SDS011;302;50.206;8.196;2022-07-10T15:15:53;2.80;;;2.60;;
635;SDS011;302;50.206;8.196;2022-07-10T15:18:19;2.80;;;2.53;;
635;SDS011;302;50.206;8.196;2022-07-10T15:20:44;2.57;;;2.37;;
635;SDS011;302;50.206;8.196;2022-07-10T15:23:09;3.03;;;2.83;;
635;SDS011;302;50.206;8.196;2022-07-10T15:25:34;2.90;;;2.70;;
635;SDS011;302;50.206;8.196;2022-07-10T15:28:02;3.22;;;2.92;;
635;SDS011;302;50.206;8.196;2022-07-10T15:30:30;2.90;;;2.70;;
635;SDS011;302;50.206;8.196;2022-07-10T15:32:55;3.08;;;2.88;;
635;SDS011;302;50.206;8.196;2022-07-10T15:36:47;3.60;;;3.40;;
635;SDS011;302;50.206;8.196;2022-07-10T15:39:14;3.10;;;3.00;;
635;SDS011;302;50.206;8.196;2022-07-10T15:41:39;3.30;;;3.10;;
635;SDS011;302;50.206;8.196;2022-07-10T15:44:09;3.15;;;2.95;;
635;SDS011;302;50.206;8.196;2022-07-10T15:46:36;3.20;;;3.00;;
635;SDS011;302;50.206;8.196;2022-07-10T15:49:03;4.00;;;3.70;;
635;SDS011;302;50.206;8.196;2022-07-10T15:51:31;3.40;;;3.10;;
635;SDS011;302;50.206;8.196;2022-07-10T15:54:00;3.33;;;2.90;;
635;SDS011;302;50.206;8.196;2022-07-10T15:56:26;3.42;;;3.22;;
635;SDS011;302;50.206;8.196;2022-07-10T15:58:56;3.58;;;3.38;;
635;SDS011;302;50.206;8.196;2022-07-10T16:01:23;3.60;;;3.40;;
635;SDS011;302;50.206;8.196;2022-07-10T16:03:49;3.60;;;3.30;;
635;SDS011;302;50.206;8.196;2022-07-10T16:06:14;4.23;;;3.93;;
635;SDS011;302;50.206;8.196;2022-07-10T16:08:39;4.50;;;4.10;;
635;SDS011;302;50.206;8.196;2022-07-10T16:11:07;4.20;;;3.90;;
635;SDS011;302;50.206;8.196;2022-07-10T16:13:33;3.93;;;3.70;;
635;SDS011;302;50.206;8.196;2022-07-10T16:16:00;3.30;;;3.10;;
635;SDS011;302;50.206;8.196;2022-07-10T16:18:29;4.07;;;3.78;;
635;SDS011;302;50.206;8.196;2022-07-10T16:21:02;3.70;;;3.50;;
635;SDS011;302;50.206;8.196;2022-07-10T16:23:33;4.00;;;3.67;;
635;SDS011;302;50.206;8.196;2022-07-10T16:26:00;3.70;;;3.50;;